Flight Track Log - Related Links

Times and Time Zones

All times are in EDT time to prevent confusion due to time zone crossing. See the TAM3480 flight status page for this flight to view local times or setup timezone preferences in your user account.

Time Position Orientation Groundspeed Altitude Reporting Facility
EDT Latitude Longitude Course Direction KTS MPH feet Rate Location/Type
Mon 09:44:00 PM -15.1126 -46.3861 63° Northeast  Level Estimated
Mon 09:45:00 PM -15.0653 -46.2910 63° Northeast  Level Estimated
Mon 09:46:00 PM -15.0181 -46.1960 63° Northeast  Level Estimated
Mon 09:47:00 PM -14.9708 -46.1011 63° Northeast  Level Estimated
Mon 09:48:00 PM -14.9234 -46.0062 63° Northeast  Level Estimated
Mon 09:49:00 PM -14.8761 -45.9113 63° Northeast  Level Estimated
Mon 09:50:00 PM -14.8286 -45.8164 63° Northeast  Level Estimated
Mon 09:51:00 PM -14.7812 -45.7216 63° Northeast  Level Estimated
Mon 09:52:00 PM -14.7337 -45.6269 63° Northeast  Level Estimated
Mon 09:53:00 PM -14.6862 -45.5322 63° Northeast  Level Estimated
Mon 09:54:00 PM -14.6386 -45.4375 63° Northeast  Level Estimated
Mon 09:55:00 PM -14.5910 -45.3429 63° Northeast  Level Estimated
Mon 09:56:00 PM -14.5433 -45.2483 63° Northeast  Level Estimated
Mon 09:57:00 PM -14.4957 -45.1537 62° Northeast  Level Estimated
Mon 09:58:00 PM -14.4479 -45.0592 62° Northeast  Level Estimated
Mon 09:59:00 PM -14.4002 -44.9648 62° Northeast  Level Estimated
Mon 10:00:00 PM -14.3524 -44.8703 62° Northeast  Level Estimated
Mon 10:01:00 PM -14.3045 -44.7759 62° Northeast  Level Estimated
Mon 10:02:00 PM -14.2567 -44.6816 62° Northeast  Level Estimated
Mon 10:03:00 PM -14.2088 -44.5873 62° Northeast  Level Estimated
Mon 10:04:00 PM -14.1608 -44.4930 62° Northeast  Level Estimated
Mon 10:05:00 PM -14.1128 -44.3988 62° Northeast  Level Estimated
Mon 10:06:00 PM -14.0648 -44.3046 62° Northeast  Level Estimated
Mon 10:07:00 PM -14.0168 -44.2104 62° Northeast  Level Estimated
Mon 10:08:00 PM -13.9687 -44.1163 62° Northeast  Level Estimated
Mon 10:09:00 PM -13.9205 -44.0223 62° Northeast  Level Estimated
Mon 10:10:00 PM -13.8724 -43.9282 62° Northeast  Level Estimated
Mon 10:11:00 PM -13.8242 -43.8342 62° Northeast  Level Estimated
Mon 10:12:00 PM -13.7759 -43.7403 62° Northeast  Level Estimated
Mon 10:13:00 PM -13.7277 -43.6464 62° Northeast  Level Estimated
Mon 10:14:00 PM -13.6793 -43.5525 62° Northeast  Level Estimated
Mon 10:15:00 PM -13.6310 -43.4587 62° Northeast  Level Estimated
Mon 10:16:00 PM -13.5826 -43.3649 62° Northeast  Level Estimated
Mon 10:17:00 PM -13.5342 -43.2711 62° Northeast  Level Estimated
Mon 10:18:00 PM -13.4858 -43.1774 62° Northeast  Level Estimated
Mon 10:19:00 PM -13.4373 -43.0837 62° Northeast  Level Estimated
Mon 10:20:00 PM -13.3888 -42.9901 62° Northeast  Level Estimated
Mon 10:21:00 PM -13.3402 -42.8965 62° Northeast  Level Estimated
Mon 10:22:00 PM -13.2916 -42.8029 62° Northeast  Level Estimated
Mon 10:23:00 PM -13.2430 -42.7094 62° Northeast  Level Estimated
Mon 10:24:00 PM -13.1944 -42.6159 62° Northeast  Level Estimated
Mon 10:25:00 PM -13.1457 -42.5224 62° Northeast  Level Estimated
Mon 10:26:00 PM -13.0969 -42.4290 62° Northeast  Level Estimated
Mon 10:27:00 PM -13.0482 -42.3356 62° Northeast  Level Estimated
Mon 10:28:00 PM -12.9994 -42.2423 62° Northeast  Level Estimated
Mon 10:29:00 PM -12.9506 -42.1489 62° Northeast  Level Estimated
Mon 10:30:00 PM -12.9017 -42.0557 62° Northeast  Level Estimated
Mon 10:31:00 PM -12.8528 -41.9624 62° Northeast  Level Estimated
Mon 10:32:00 PM -12.8039 -41.8692 62° Northeast  Level Estimated
Mon 10:33:00 PM -12.7550 -41.7761 62° Northeast  Level Estimated
Mon 10:34:00 PM -12.7060 -41.6829 62° Northeast  Level Estimated
Mon 10:35:00 PM -12.6569 -41.5899 62° Northeast  Level Estimated
Mon 10:36:00 PM -12.6079 -41.4968 62° Northeast  Level Estimated
Mon 10:37:00 PM -12.5588 -41.4038 62° Northeast  Level Estimated
Mon 10:38:00 PM -12.5097 -41.3108 62° Northeast  Level Estimated
Mon 10:39:00 PM -12.4606 -41.2178 62° Northeast  Level Estimated
Mon 10:40:00 PM -12.4114 -41.1249 62° Northeast  Level Estimated
Mon 10:41:00 PM -12.3622 -41.0321 62° Northeast  Level Estimated
Mon 10:42:00 PM -12.3129 -40.9392 62° Northeast  Level Estimated
Mon 10:43:00 PM -12.2636 -40.8464 61° Northeast  Level Estimated
Mon 10:44:00 PM -12.2143 -40.7536 61° Northeast  Level Estimated
Mon 10:45:00 PM -12.1650 -40.6609 61° Northeast  Level Estimated
Mon 10:46:00 PM -12.1156 -40.5682 61° Northeast  Level Estimated
Mon 10:47:00 PM -12.0662 -40.4755 61° Northeast  Level Estimated
Mon 10:48:00 PM -12.0168 -40.3829 61° Northeast  Level Estimated
Mon 10:49:00 PM -11.9673 -40.2903 61° Northeast  Level Estimated
Mon 10:50:00 PM -11.9178 -40.1977 61° Northeast  Level Estimated
Mon 10:51:00 PM -11.8683 -40.1052 61° Northeast  Level Estimated
Mon 10:52:00 PM -11.8188 -40.0127 61° Northeast  Level Estimated
Mon 10:53:00 PM -11.7692 -39.9202 61° Northeast  Level Estimated
Mon 10:54:00 PM -11.7196 -39.8278 61° Northeast  Level Estimated
Mon 10:55:00 PM -11.6699 -39.7354 61° Northeast  Level Estimated
Mon 10:56:00 PM -11.6203 -39.6430 61° Northeast  Level Estimated
Mon 10:57:00 PM -11.5706 -39.5506 61° Northeast  Level Estimated
Mon 10:58:00 PM -11.5209 -39.4583 61° Northeast  Level Estimated
Mon 10:59:00 PM -11.4711 -39.3661 61° Northeast  Level Estimated
Mon 11:00:00 PM -11.4213 -39.2738 61° Northeast  Level Estimated
Mon 11:01:00 PM -11.3715 -39.1816 61° Northeast  Level Estimated
Mon 11:02:00 PM -11.3217 -39.0895 61° Northeast  Level Estimated
Mon 11:03:00 PM -11.2718 -38.9973 61° Northeast  Level Estimated
Mon 11:04:00 PM -11.2219 -38.9052 61° Northeast  Level Estimated
Mon 11:05:00 PM -11.1720 -38.8131 61° Northeast  Level Estimated
Mon 11:06:00 PM -11.1220 -38.7211 61° Northeast  Level Estimated
Mon 11:07:00 PM -11.0720 -38.6291 61° Northeast  Level Estimated
Mon 11:08:00 PM -11.0220 -38.5371 61° Northeast  Level Estimated
Mon 11:09:00 PM -10.9720 -38.4451 61° Northeast  Level Estimated
Mon 11:10:00 PM -10.9219 -38.3532 61° Northeast  Level Estimated
Mon 11:11:00 PM -10.8718 -38.2613 61° Northeast  Level Estimated
Mon 11:12:00 PM -10.8217 -38.1695 61° Northeast  Level Estimated
Mon 11:13:00 PM -10.7715 -38.0776 61° Northeast  Level Estimated
Mon 11:14:00 PM -10.7214 -37.9858 61° Northeast  Level Estimated
Mon 11:15:00 PM -10.6712 -37.8941 61° Northeast  Level Estimated
Mon 11:16:00 PM -10.6209 -37.8023 61° Northeast  Level Estimated
Mon 11:17:00 PM -10.5707 -37.7106 61° Northeast  Level Estimated
Mon 11:18:00 PM -10.5204 -37.6189 61° Northeast  Level Estimated
Mon 11:19:00 PM -10.4701 -37.5273 61° Northeast  Level Estimated
Mon 11:20:00 PM -10.4197 -37.4357 61° Northeast  Level Estimated
Mon 11:21:00 PM -10.3694 -37.3441 61° Northeast  Level Estimated
Mon 11:22:00 PM -10.3190 -37.2525 61° Northeast  Level Estimated
Mon 11:23:00 PM -10.2686 -37.1610 61° Northeast  Level Estimated
Mon 11:24:00 PM -10.2181 -37.0695 61° Northeast  Level Estimated
Mon 11:25:00 PM -10.1677 -36.9780 61° Northeast  Level Estimated
Mon 11:26:00 PM -10.1172 -36.8866 61° Northeast  Level Estimated
Mon 11:27:00 PM -10.0667 -36.7952 61° Northeast  Level Estimated
Mon 11:28:00 PM -10.0161 -36.7038 61° Northeast  Level Estimated
Mon 11:29:00 PM -9.9656 -36.6124 61° Northeast  Level Estimated
Mon 11:30:00 PM -9.9150 -36.5211 61° Northeast  Level Estimated
Mon 11:31:00 PM -9.8644 -36.4298 61° Northeast  Level Estimated
Mon 11:32:00 PM -9.8137 -36.3385 61° Northeast  Level Estimated
Mon 11:33:00 PM -9.7631 -36.2473 61° Northeast  Level Estimated
Mon 11:34:00 PM -9.7124 -36.1561 61° Northeast  Level Estimated
Mon 11:35:00 PM -9.6617 -36.0649 61° Northeast  Level Estimated
Mon 11:36:00 PM -9.6109 -35.9737 61° Northeast  Level Estimated
Mon 11:37:00 PM -9.5602 -35.8826 61° Northeast  Level Estimated
Mon 11:38:00 PM -9.5105 -35.7934 61° Northeast  Level Estimated
Mon 11:39:00 PM -9.5105 -35.7934 135° Southeast  Level Estimated
Mon 11:40:00 PM -9.5105 -35.7934 135° Southeast  Level Estimated
Mon 11:41:00 PM -9.5105 -35.7934 135° Southeast  Level Estimated
Mon 11:42:00 PM -9.5105 -35.7934 135° Southeast  Level Estimated
Mon 11:43:00 PM -9.5105 -35.7934 135° Southeast  Level Estimated
Mon 11:44:00 PM -9.5105 -35.7934 135° Southeast  Level Estimated
Mon 11:45:00 PM -9.5105 -35.7934 135° Southeast  Level Estimated
Mon 11:46:00 PM -9.5105 -35.7934 135° Southeast  Level Estimated
Mon 11:47:00 PM -9.5105 -35.7934 135° Southeast  Level Estimated
Mon 11:48:00 PM -9.5105 -35.7934 135° Southeast  Level Estimated
Mon 11:49:00 PM -9.5105 -35.7934 135° Southeast  Level Estimated
Mon 11:50:00 PM -9.5105 -35.7934 135° Southeast  Level Estimated
Mon 11:51:00 PM -9.5105 -35.7934 135° Southeast  Level Estimated
Mon 11:52:00 PM -9.5105 -35.7934 135° Southeast  Level Estimated
Mon 11:53:00 PM -9.5105 -35.7934 135° Southeast  Level Estimated
Mon 11:54:00 PM -9.5105 -35.7934 135° Southeast  Level Estimated

Login

Don't have an account? Register now (free) for customized features, flight alerts, and more!